Accueil
METAR-TAF:

METAR-TAF

Aéroports :

Brescia Ghedi, Italie

latitude: 45-25N, longitude: 010-17E, altitude: 102 m

Observation

Le bulletin a été fait il y a 33 minutes, à 21:55 UTC
Vent 4 kt de nord/nord-est
Température 15°C
Humidité 94%
Pression 1002 hPa
Visibilité 10 km ou plus
Nuages fragmentés à une hauteur de 6000 ft

METAR: LIPL 262155Z 02004KT 9999 BKN060 15/14 Q1002 RMK BKN VIS MIN 9999 WIND THR31 09004KT WIND THR13 32004KT BLU

Heure: 00:28 (22:28 UTC)

Prévision

Le bulletin a été fait il y a 2 heures et 28 minutes, à 20:00 UTC
Prévision valable du 26 à 21 UTC au 27 à 06 UTC
Vent 3 kt de direction variable
Visibilité 10 km ou plus
Nuages fragmentés à une hauteur de 5000 ft
Temporairement
du 26 à 21 UTC au 26 à 24 UTC
Visibilité: 5000 m
Quelques nuages à une hauteur de 3000 ft, Cumulonimbus.
Nuages épars à une hauteur de 4000 ft
orage, pluie

TAF: LIPL 262000Z 2621/2706 VRB03KT 9999 BKN050 TEMPO 2621/2624 5000 TSRA FEW030CB SCT040

Observations et prévisions météorologiques de plus de 4000 aéroports (messages METAR et TAF).

Les stations disponibles sont représentées par des disques jaunes et rouges sur la carte.

Passer la souris dessus pour voir le nom de la station.

Cliquer dessus pour voir les observations et prévisions météorologiques.

Pour changer de carte: cliquez sur les boutons verts avec une croix noire pour zoomer, sur le bouton vert avec un tiret pour effectuer un zoom arrière, ou sur les flèches vertes pour les cartes adjacentes.


METAR-TAF: